Time;durP1;ratioP1;P1;durP2;ratioP2;P2;SDS_P1;SDS_P2;PMS_P1;PMS_P2;Temp;Humidity;BMP_temperature;BMP_pressure;BME280_temperature;BME280_humidity;BME280_pressure;Samples;Min_cycle;Max_cycle;Signal;HPM_P1;HPM_P2
2022/07/27 00:02:26;;;;;;;;;;;;;;;25.04;45.51;98683.91;4997450;28;19914;-93
2022/07/27 00:04:51;;;;;;;;;;;;;;;24.83;45.48;98703.81;5016666;28;19917;-92
2022/07/27 00:07:17;;;;;;;;;;;;;;;24.79;45.69;98684.50;5018516;28;20284;-91
2022/07/27 00:09:42;;;;;;;;;;;;;;;24.80;45.60;98699.88;4984049;28;19941;-92
2022/07/27 00:12:08;;;;;;;;;;;;;;;24.81;44.93;98701.44;4981385;28;19972;-92
2022/07/27 00:14:33;;;;;;;;;;;;;;;24.78;45.54;98695.94;4997650;28;19923;-92
2022/07/27 00:16:59;;;;;;;;;;;;;;;24.90;44.90;98692.06;5014039;28;19925;-92
2022/07/27 00:19:25;;;;;;;;;;;;;;;24.95;44.89;98700.78;5028818;28;19917;-92
2022/07/27 00:21:50;;;;;;;;;;;;;;;25.11;44.76;98702.47;5017442;28;19948;-92
2022/07/27 00:24:16;;;;;;;;;;;;;;;25.16;44.46;98705.66;5003773;28;19920;-92
2022/07/27 00:26:42;;;;;;;;;;;;;;;25.19;44.06;98699.41;4981694;28;20009;-92
2022/07/27 00:29:07;;;;;;;;;;;;;;;25.26;43.90;98700.66;4994351;28;19913;-92
2022/07/27 00:31:34;;;;;;;;;;;;;;;25.35;43.66;98695.56;5016716;28;20322;-93
2022/07/27 00:34:01;;;;;;;;;;;;;;;25.38;43.18;98695.59;5033884;28;19924;-93
2022/07/27 00:36:28;;;;;;;;;;;;;;;25.30;44.74;98698.72;5017116;28;19956;-92
2022/07/27 00:38:54;;;;;;;;;;;;;;;25.02;45.19;98700.81;5025704;28;19913;-92
2022/07/27 00:41:20;;;;;;;;;;;;;;;24.84;45.51;98707.38;5033268;28;19928;-92
2022/07/27 00:43:52;;;;;;;;;;;;;;;24.68;46.08;98693.88;5033133;28;19966;-92
2022/07/27 00:46:17;;;;;;;;;;;;;;;24.56;46.83;98701.22;5017138;28;20012;-92
2022/07/27 00:48:44;;;;;;;;;;;;;;;24.44;46.95;98706.97;5007643;28;20438;-93
2022/07/27 00:51:11;;;;;;;;;;;;;;;24.44;46.68;98706.97;4996976;28;20403;-91
2022/07/27 00:53:36;;;;;;;;;;;;;;;24.32;47.44;98702.53;4996879;28;19917;-92
2022/07/27 00:56:03;;;;;;;;;;;;;;;24.30;47.17;98709.56;4997449;28;19924;-92
2022/07/27 00:58:28;;;;;;;;;;;;;;;24.25;47.40;98701.66;5004323;28;20306;-92
2022/07/27 01:00:54;;;;;;;;;;;;;;;24.23;47.45;98706.75;5017003;28;19926;-92
2022/07/27 01:03:20;;;;;;;;;;;;;;;24.11;48.06;98696.78;5001450;28;19917;-92
2022/07/27 01:05:45;;;;;;;;;;;;;;;24.14;47.52;98696.06;5033625;28;19920;-92
2022/07/27 01:08:14;;;;;;;;;;;;;;;24.14;47.70;98691.34;5011509;28;19975;-92
2022/07/27 01:10:40;;;;;;;;;;;;;;;24.17;47.57;98696.06;4996284;28;20051;-92
2022/07/27 01:13:05;;;;;;;;;;;;;;;24.17;47.97;98701.56;5000488;28;20468;-92
2022/07/27 01:15:32;;;;;;;;;;;;;;;24.13;48.27;98692.50;5020402;28;20004;-92
2022/07/27 01:17:57;;;;;;;;;;;;;;;24.07;48.69;98691.25;5018497;28;19914;-92
2022/07/27 01:20:22;;;;;;;;;;;;;;;24.04;48.64;98692.00;4985092;28;19914;-92
2022/07/27 01:22:48;;;;;;;;;;;;;;;23.95;48.74;98699.78;4986277;28;19918;-92
2022/07/27 01:25:13;;;;;;;;;;;;;;;24.05;48.30;98707.34;5021007;28;19909;-92
2022/07/27 01:27:39;;;;;;;;;;;;;;;24.06;48.46;98694.38;5003416;28;19964;-93
2022/07/27 01:32:49;;;;;;;;;;;;;;;23.92;49.51;98698.53;5005885;28;20015;-92
2022/07/27 01:35:15;;;;;;;;;;;;;;;23.79;49.86;98697.22;5019598;28;20031;-92
2022/07/27 01:37:40;;;;;;;;;;;;;;;23.68;49.28;98694.31;5020028;28;19913;-92
2022/07/27 01:40:08;;;;;;;;;;;;;;;23.52;49.74;98699.19;5020175;28;19913;-93
2022/07/27 01:42:34;;;;;;;;;;;;;;;23.37;50.53;98689.97;5020257;28;19921;-92
2022/07/27 01:45:00;;;;;;;;;;;;;;;23.25;50.26;98704.69;5036373;28;19913;-92
2022/07/27 01:47:25;;;;;;;;;;;;;;;23.20;50.50;98703.06;5019426;28;19913;-93
2022/07/27 01:49:51;;;;;;;;;;;;;;;23.19;50.23;98706.94;5000626;28;20386;-92
2022/07/27 01:52:17;;;;;;;;;;;;;;;23.15;50.47;98706.09;4999776;28;19921;-92
2022/07/27 01:54:43;;;;;;;;;;;;;;;23.00;51.39;98696.03;5017219;28;20016;-92
2022/07/27 01:57:08;;;;;;;;;;;;;;;22.94;51.25;98703.00;5019035;28;20367;-92
2022/07/27 01:59:33;;;;;;;;;;;;;;;22.96;51.00;98703.44;5006342;28;19953;-92
2022/07/27 02:02:00;;;;;;;;;;;;;;;22.96;51.17;98701.47;5019867;28;19914;-93
2022/07/27 02:04:25;;;;;;;;;;;;;;;22.94;51.62;98709.28;5019312;28;19917;-92
2022/07/27 02:06:51;;;;;;;;;;;;;;;22.84;52.17;98714.59;5019696;28;19920;-92
2022/07/27 02:09:16;;;;;;;;;;;;;;;22.78;52.02;98712.13;5018948;28;20298;-92
2022/07/27 02:14:26;;;;;;;;;;;;;;;22.70;52.83;98706.91;5022075;28;19925;-91
2022/07/27 02:16:51;;;;;;;;;;;;;;;22.56;52.94;98702.75;5019022;28;19917;-92
2022/07/27 02:19:16;;;;;;;;;;;;;;;22.51;53.42;98711.28;5019381;28;19913;-92
2022/07/27 02:21:42;;;;;;;;;;;;;;;22.48;53.58;98711.25;5019373;28;19975;-92
2022/07/27 02:24:08;;;;;;;;;;;;;;;22.46;53.21;98706.09;5018820;28;19920;-92
2022/07/27 02:26:33;;;;;;;;;;;;;;;22.41;54.00;98714.63;5019630;28;19913;-91
2022/07/27 02:28:58;;;;;;;;;;;;;;;22.35;53.82;98713.34;5019911;28;19929;-92
2022/07/27 02:31:24;;;;;;;;;;;;;;;22.31;54.24;98698.78;5019378;28;20375;-92
2022/07/27 02:33:50;;;;;;;;;;;;;;;22.23;54.17;98705.25;5019481;28;19917;-91
2022/07/27 02:36:16;;;;;;;;;;;;;;;22.16;54.85;98703.97;5019378;28;19913;-92
2022/07/27 02:38:42;;;;;;;;;;;;;;;22.16;55.69;98708.63;5019483;28;19948;-92
2022/07/27 02:41:07;;;;;;;;;;;;;;;22.14;55.37;98716.44;5019844;28;20015;-93
2022/07/27 02:43:32;;;;;;;;;;;;;;;22.06;55.77;98706.47;5018680;28;19913;-92
2022/07/27 02:45:58;;;;;;;;;;;;;;;21.96;56.31;98705.13;5018982;28;19943;-92
2022/07/27 02:48:24;;;;;;;;;;;;;;;21.95;55.82;98709.78;5018833;28;20441;-92
2022/07/27 02:50:49;;;;;;;;;;;;;;;21.97;55.42;98709.44;5019070;28;19913;-92
2022/07/27 02:53:15;;;;;;;;;;;;;;;21.96;56.17;98716.88;5029439;28;19953;-92
2022/07/27 02:55:41;;;;;;;;;;;;;;;21.94;56.46;98719.19;4998932;28;19917;-92
2022/07/27 02:58:07;;;;;;;;;;;;;;;21.90;56.25;98717.53;5003573;28;20303;-92
2022/07/27 03:00:33;;;;;;;;;;;;;;;21.90;56.15;98729.28;5019249;28;19921;-93
2022/07/27 03:02:58;;;;;;;;;;;;;;;21.86;56.54;98728.41;5019507;28;19920;-93
2022/07/27 03:05:23;;;;;;;;;;;;;;;21.83;56.95;98729.16;5019210;28;19924;-92
2022/07/27 03:07:49;;;;;;;;;;;;;;;21.82;56.58;98726.75;5016474;28;19924;-92
2022/07/27 03:10:16;;;;;;;;;;;;;;;21.87;56.18;98731.94;5019108;28;19920;-92
2022/07/27 03:12:42;;;;;;;;;;;;;;;21.84;56.39;98730.72;5019284;28;19920;-92
2022/07/27 03:15:08;;;;;;;;;;;;;;;21.88;56.67;98737.06;5017165;28;19917;-91
2022/07/27 03:17:34;;;;;;;;;;;;;;;21.90;56.38;98742.22;5019255;28;19999;-91
2022/07/27 03:20:01;;;;;;;;;;;;;;;21.85;56.62;98742.47;5019435;28;20369;-92
2022/07/27 03:22:31;;;;;;;;;;;;;;;21.92;56.29;98734.41;5018262;28;19939;-92
2022/07/27 03:24:57;;;;;;;;;;;;;;;21.88;56.41;98734.34;5018536;28;19913;-92
2022/07/27 03:27:22;;;;;;;;;;;;;;;21.84;57.01;98740.91;5018285;28;20303;-91
2022/07/27 03:29:47;;;;;;;;;;;;;;;21.80;56.69;98738.88;5001257;28;19942;-90
2022/07/27 03:32:13;;;;;;;;;;;;;;;21.78;56.82;98743.13;5001046;28;19982;-90
2022/07/27 03:34:39;;;;;;;;;;;;;;;21.72;57.13;98748.06;5017656;28;19921;-90
2022/07/27 03:37:04;;;;;;;;;;;;;;;21.51;57.50;98742.13;5034211;28;19914;-90
2022/07/27 03:39:30;;;;;;;;;;;;;;;21.39;58.55;98745.75;4999933;28;19913;-90
2022/07/27 03:41:56;;;;;;;;;;;;;;;21.43;58.40;98756.81;5016988;28;20009;-92
2022/07/27 03:44:22;;;;;;;;;;;;;;;21.34;58.23;98754.25;5017319;28;20370;-90
2022/07/27 03:46:48;;;;;;;;;;;;;;;21.36;58.51;98755.47;5034256;28;19952;-88
2022/07/27 03:49:13;;;;;;;;;;;;;;;21.29;58.81;98758.06;5001446;28;19944;-89
2022/07/27 03:51:39;;;;;;;;;;;;;;;21.47;58.04;98761.22;5033297;28;19952;-90
2022/07/27 03:54:04;;;;;;;;;;;;;;;21.59;57.90;98761.13;5017611;28;19924;-91
2022/07/27 03:56:32;;;;;;;;;;;;;;;21.56;57.92;98759.09;5017158;28;19913;-92
2022/07/27 03:58:57;;;;;;;;;;;;;;;21.50;57.94;98766.00;5033130;28;19967;-90
2022/07/27 04:01:24;;;;;;;;;;;;;;;21.47;57.96;98763.97;5017334;28;20326;-91
2022/07/27 04:03:49;;;;;;;;;;;;;;;21.44;58.18;98775.66;5011357;28;19924;-91
2022/07/27 04:06:15;;;;;;;;;;;;;;;21.44;58.60;98775.66;5013299;28;20383;-91
2022/07/27 04:08:40;;;;;;;;;;;;;;;21.45;58.64;98769.00;4994582;28;20063;-91
2022/07/27 04:11:05;;;;;;;;;;;;;;;21.48;58.65;98776.53;5017102;28;20056;-91
2022/07/27 04:13:31;;;;;;;;;;;;;;;21.47;58.33;98776.88;5021977;28;19913;-90
2022/07/27 04:15:56;;;;;;;;;;;;;;;21.57;58.49;98779.84;5015774;28;19919;-91
2022/07/27 04:18:23;;;;;;;;;;;;;;;21.59;58.22;98780.28;5024403;28;19914;-91
2022/07/27 04:20:49;;;;;;;;;;;;;;;21.51;58.12;98778.53;5017329;28;19917;-91
2022/07/27 04:23:14;;;;;;;;;;;;;;;21.51;58.47;98786.75;5017277;28;19999;-91
2022/07/27 04:25:40;;;;;;;;;;;;;;;21.63;57.47;98774.13;5001416;28;20350;-90
2022/07/27 04:28:05;;;;;;;;;;;;;;;21.62;57.66;98781.50;5017092;28;19917;-91
2022/07/27 04:30:31;;;;;;;;;;;;;;;21.68;57.69;98780.09;5014137;28;19949;-90
2022/07/27 04:32:57;;;;;;;;;;;;;;;21.74;57.60;98789.63;5006917;28;19913;-90
2022/07/27 04:35:22;;;;;;;;;;;;;;;21.87;57.56;98787.59;5029051;28;19925;-90
2022/07/27 04:37:48;;;;;;;;;;;;;;;21.98;56.57;98796.81;5017557;28;19913;-90
2022/07/27 04:40:14;;;;;;;;;;;;;;;22.10;56.27;98800.56;5036555;28;19913;-93
2022/07/27 04:42:41;;;;;;;;;;;;;;;22.20;55.43;98814.53;5033751;28;19920;-94
2022/07/27 04:45:07;;;;;;;;;;;;;;;22.28;55.52;98815.47;5033544;28;19913;-93
2022/07/27 04:47:33;;;;;;;;;;;;;;;22.44;55.18;98812.66;5017476;28;19913;-94
2022/07/27 04:49:59;;;;;;;;;;;;;;;22.51;54.96;98810.06;5033246;28;19923;-94
2022/07/27 04:52:26;;;;;;;;;;;;;;;22.64;54.93;98809.91;5033657;28;19983;-93
2022/07/27 04:54:52;;;;;;;;;;;;;;;22.69;54.79;98818.63;5017700;28;19918;-92
2022/07/27 04:57:22;;;;;;;;;;;;;;;22.72;54.47;98823.41;5031143;28;19949;-96
2022/07/27 04:59:47;;;;;;;;;;;;;;;22.85;53.79;98821.31;5007853;28;19944;-94
2022/07/27 05:02:13;;;;;;;;;;;;;;;22.91;54.08;98819.03;5017398;28;19984;-95
2022/07/27 05:04:39;;;;;;;;;;;;;;;23.03;53.19;98821.63;5018064;28;20407;-94
2022/07/27 05:07:08;;;;;;;;;;;;;;;23.09;52.88;98828.41;5018802;28;19991;-93
2022/07/27 05:09:33;;;;;;;;;;;;;;;23.20;52.59;98828.59;5019086;28;19979;-94
2022/07/27 05:11:59;;;;;;;;;;;;;;;23.28;52.23;98838.53;5022881;28;19949;-95
2022/07/27 05:14:24;;;;;;;;;;;;;;;23.36;52.12;98844.94;5041212;28;19944;-95
2022/07/27 05:16:49;;;;;;;;;;;;;;;23.40;52.15;98841.09;5001723;28;19983;-93
2022/07/27 05:19:14;;;;;;;;;;;;;;;23.51;51.55;98843.22;5004327;28;19936;-91
2022/07/27 05:21:40;;;;;;;;;;;;;;;23.59;51.75;98843.00;5018257;28;19948;-93
2022/07/27 05:24:06;;;;;;;;;;;;;;;23.73;51.33;98842.41;5002620;28;19921;-96
2022/07/27 05:26:32;;;;;;;;;;;;;;;23.95;50.31;98840.03;5011534;28;19913;-90
2022/07/27 05:28:57;;;;;;;;;;;;;;;24.03;50.65;98847.22;4997782;28;20020;-90
2022/07/27 05:31:23;;;;;;;;;;;;;;;24.10;49.67;98850.03;5011176;28;19913;-91
2022/07/27 05:33:49;;;;;;;;;;;;;;;24.31;50.27;98849.53;5010050;28;19917;-91
2022/07/27 05:36:16;;;;;;;;;;;;;;;24.50;49.39;98851.38;5013883;28;19964;-89
2022/07/27 05:38:45;;;;;;;;;;;;;;;24.64;49.05;98848.00;5007717;28;19920;-89
2022/07/27 05:41:11;;;;;;;;;;;;;;;24.77;48.78;98854.81;5024447;28;19917;-88
2022/07/27 05:43:36;;;;;;;;;;;;;;;24.91;48.51;98861.66;5032649;28;19921;-90
2022/07/27 05:46:01;;;;;;;;;;;;;;;25.08;47.65;98858.28;5015232;28;19956;-90
2022/07/27 05:48:28;;;;;;;;;;;;;;;25.25;47.95;98858.88;5009590;28;19917;-90
2022/07/27 05:50:59;;;;;;;;;;;;;;;25.47;47.27;98857.09;5016740;28;20306;-91
2022/07/27 05:53:24;;;;;;;;;;;;;;;25.61;46.90;98852.50;5009496;28;20578;-91
2022/07/27 05:55:51;;;;;;;;;;;;;;;25.75;46.27;98862.03;5016842;28;19980;-91
2022/07/27 05:58:18;;;;;;;;;;;;;;;25.91;46.10;98850.75;5022033;28;19913;-93
2022/07/27 06:00:47;;;;;;;;;;;;;;;26.06;45.11;98863.44;5017286;28;20386;-93
2022/07/27 06:03:12;;;;;;;;;;;;;;;26.24;43.01;98854.50;5020684;28;19921;-93
2022/07/27 06:05:38;;;;;;;;;;;;;;;26.40;40.38;98858.50;5013591;28;19979;-92
2022/07/27 06:08:10;;;;;;;;;;;;;;;26.55;41.82;98855.81;5004302;28;19913;-93
2022/07/27 06:10:35;;;;;;;;;;;;;;;26.70;41.06;98848.41;5020634;28;19913;-88
2022/07/27 06:13:02;;;;;;;;;;;;;;;26.85;40.66;98851.97;5004214;28;19917;-93
2022/07/27 06:15:27;;;;;;;;;;;;;;;26.89;39.51;98852.78;5005126;28;19925;-92
2022/07/27 06:18:07;;;;;;;;;;;;;;;27.05;39.47;98853.22;5001134;28;19913;-94
2022/07/27 06:20:33;;;;;;;;;;;;;;;27.19;40.47;98847.72;5034038;28;19949;-93
2022/07/27 06:22:59;;;;;;;;;;;;;;;27.29;40.31;98857.22;5020451;28;19917;-91
2022/07/27 06:25:28;;;;;;;;;;;;;;;27.44;40.06;98868.31;5017641;28;19913;-94
2022/07/27 06:27:55;;;;;;;;;;;;;;;27.55;38.56;98856.03;5020304;28;20063;-91
2022/07/27 06:30:38;;;;;;;;;;;;;;;27.72;38.77;98864.72;5004446;28;19967;-95
2022/07/27 06:33:05;;;;;;;;;;;;;;;27.77;37.36;98864.34;5019408;28;19913;-92
2022/07/27 06:35:34;;;;;;;;;;;;;;;27.87;37.59;98866.34;5019946;28;19917;-93
2022/07/27 06:38:45;;;;;;;;;;;;;;;;;;;;;
2022/07/27 06:41:11;;;;;;;;;;;;;;;28.04;37.38;98870.25;5025198;28;19984;-92
2022/07/27 06:43:44;;;;;;;;;;;;;;;28.12;37.22;98865.47;5022052;28;19944;-92
2022/07/27 06:46:13;;;;;;;;;;;;;;;28.25;36.73;98861.09;5006537;28;19928;-93
2022/07/27 06:48:38;;;;;;;;;;;;;;;28.39;38.19;98860.28;5008025;28;20012;-94
2022/07/27 06:51:05;;;;;;;;;;;;;;;28.50;37.50;98866.56;5021758;28;19948;-93
2022/07/27 06:53:53;;;;;;;;;;;;;;;28.64;36.28;98862.16;5005086;28;19928;-92
2022/07/27 06:56:21;;;;;;;;;;;;;;;28.73;36.40;98860.53;5040010;28;20261;-94
2022/07/27 06:58:51;;;;;;;;;;;;;;;28.89;35.36;98862.00;5010077;28;19918;-92
2022/07/27 07:01:19;;;;;;;;;;;;;;;28.92;35.60;98855.69;5005340;28;19921;-95
2022/07/27 07:03:47;;;;;;;;;;;;;;;29.11;35.10;98855.19;5019341;28;20399;-94
2022/07/27 07:06:43;;;;;;;;;;;;;;;29.25;35.14;98859.06;5009810;28;19913;-96
2022/07/27 07:09:09;;;;;;;;;;;;;;;29.40;34.26;98854.97;4985552;28;19917;-92
2022/07/27 07:11:57;;;;;;;;;;;;;;;29.48;34.66;98853.72;5014087;28;19913;-95
2022/07/27 07:14:41;;;;;;;;;;;;;;;;;;;;;
2022/07/27 07:17:07;;;;;;;;;;;;;;;29.72;34.55;98849.19;5034545;28;19973;-95
2022/07/27 07:19:32;;;;;;;;;;;;;;;29.75;34.68;98855.91;5023366;28;19975;-94
2022/07/27 07:21:59;;;;;;;;;;;;;;;29.88;33.58;98850.59;5021523;28;19920;-93
2022/07/27 07:24:25;;;;;;;;;;;;;;;29.93;34.83;98850.97;5022261;28;19999;-89
2022/07/27 07:26:50;;;;;;;;;;;;;;;30.05;34.13;98849.66;5021277;28;19959;-92
2022/07/27 07:29:15;;;;;;;;;;;;;;;30.04;33.92;98847.28;5019870;28;19916;-91
2022/07/27 07:31:41;;;;;;;;;;;;;;;30.16;33.59;98850.31;5036908;28;20012;-92
2022/07/27 07:34:08;;;;;;;;;;;;;;;30.26;34.36;98851.41;5003910;28;19917;-94
2022/07/27 07:36:43;;;;;;;;;;;;;;;30.34;33.02;98846.56;5020215;28;19920;-94
2022/07/27 07:39:09;;;;;;;;;;;;;;;30.40;32.91;98836.56;5018334;28;19917;-94
2022/07/27 07:41:36;;;;;;;;;;;;;;;30.44;32.95;98842.09;5017126;28;19920;-93
2022/07/27 07:44:01;;;;;;;;;;;;;;;30.55;32.56;98842.75;5033328;28;20011;-91
2022/07/27 07:46:28;;;;;;;;;;;;;;;30.59;33.56;98838.72;5017831;28;20012;-95
2022/07/27 07:48:54;;;;;;;;;;;;;;;30.68;32.60;98845.75;5030203;28;20298;-93
2022/07/27 07:51:19;;;;;;;;;;;;;;;30.69;34.47;98839.75;5017803;28;20056;-91
2022/07/27 07:53:48;;;;;;;;;;;;;;;30.81;32.19;98838.41;5018244;28;19920;-95
2022/07/27 07:56:13;;;;;;;;;;;;;;;30.90;32.68;98835.13;5018453;28;19955;-93
2022/07/27 07:58:38;;;;;;;;;;;;;;;30.96;32.02;98841.78;5018713;28;19917;-93
2022/07/27 08:01:05;;;;;;;;;;;;;;;30.95;32.40;98831.91;5018167;28;19928;-95
2022/07/27 08:07:04;;;;;;;;;;;;;;;31.13;32.10;98835.19;4972484;28;19914;-93
2022/07/27 08:09:37;;;;;;;;;;;;;;;31.19;31.90;98835.50;4960253;28;19937;-94
2022/07/27 08:12:03;;;;;;;;;;;;;;;31.25;32.93;98833.81;4991660;28;20055;-92
2022/07/27 08:14:36;;;;;;;;;;;;;;;31.37;32.11;98835.22;5017829;28;20207;-89
2022/07/27 08:17:01;;;;;;;;;;;;;;;31.45;32.48;98835.91;5035241;28;19920;-92
2022/07/27 08:19:53;;;;;;;;;;;;;;;31.54;31.61;98833.38;5036101;28;20007;-88
2022/07/27 08:22:19;;;;;;;;;;;;;;;31.59;31.02;98830.09;5000449;28;19913;-91
2022/07/27 08:24:44;;;;;;;;;;;;;;;31.69;31.46;98834.69;4999096;28;19921;-95
2022/07/27 08:30:12;;;;;;;;;;;;;;;31.91;30.86;98835.06;5010768;28;19924;-92
2022/07/27 08:32:59;;;;;;;;;;;;;;;31.95;30.47;98837.81;5014059;28;19913;-92
2022/07/27 08:35:26;;;;;;;;;;;;;;;32.04;30.02;98837.25;4981539;28;20083;-92
2022/07/27 08:37:51;;;;;;;;;;;;;;;32.09;30.70;98834.00;5013748;28;19963;-93
2022/07/27 08:40:36;;;;;;;;;;;;;;;32.18;29.44;98826.63;5005095;28;19917;-95
2022/07/27 08:43:03;;;;;;;;;;;;;;;32.33;30.05;98826.34;5004501;28;19914;-91
2022/07/27 08:45:44;;;;;;;;;;;;;;;32.41;29.94;98834.13;4997556;28;19918;-94
2022/07/27 08:48:19;;;;;;;;;;;;;;;32.57;29.66;98832.63;4999041;28;19949;-92
2022/07/27 08:50:54;;;;;;;;;;;;;;;32.67;28.97;98826.06;4980997;28;19920;-94
2022/07/27 08:53:20;;;;;;;;;;;;;;;32.72;28.57;98830.31;5018108;28;19960;-91
2022/07/27 08:55:47;;;;;;;;;;;;;;;32.78;28.76;98840.53;5034570;28;20310;-93
2022/07/27 08:58:12;;;;;;;;;;;;;;;32.70;28.05;98829.97;5035700;28;19920;-92
2022/07/27 09:00:39;;;;;;;;;;;;;;;32.77;28.15;98825.03;5018659;28;20379;-92
2022/07/27 09:03:15;;;;;;;;;;;;;;;;;;;;;
2022/07/27 09:05:44;;;;;;;;;;;;;;;32.88;28.32;98829.56;5019618;28;19936;-90
2022/07/27 09:08:13;;;;;;;;;;;;;;;32.99;27.75;98825.31;5016151;28;19917;-93
2022/07/27 09:10:41;;;;;;;;;;;;;;;32.95;27.51;98826.59;5015981;28;19944;-89
2022/07/27 09:13:23;;;;;;;;;;;;;;;32.88;27.54;98819.19;5014800;28;19959;-89
2022/07/27 09:15:51;;;;;;;;;;;;;;;32.95;27.48;98824.59;5034224;28;19920;-92
2022/07/27 09:18:18;;;;;;;;;;;;;;;33.07;28.11;98820.34;5002502;28;19921;-91
2022/07/27 09:20:44;;;;;;;;;;;;;;;33.17;27.07;98818.56;5015522;28;19976;-92
2022/07/27 09:31:27;;;;;;;;;;;;;;;33.11;27.12;98812.72;5002282;28;19942;-93
2022/07/27 09:33:54;;;;;;;;;;;;;;;33.35;28.12;98801.34;4961035;28;19925;-95
2022/07/27 09:36:21;;;;;;;;;;;;;;;33.48;26.83;98810.59;4967142;28;19941;-94
2022/07/27 09:39:05;;;;;;;;;;;;;;;33.54;26.79;98808.84;4969604;28;19943;-93
2022/07/27 09:41:43;;;;;;;;;;;;;;;33.68;27.85;98807.72;4968605;28;19956;-94
2022/07/27 09:44:08;;;;;;;;;;;;;;;33.69;26.60;98802.94;4990124;28;19914;-91
2022/07/27 09:46:36;;;;;;;;;;;;;;;33.77;26.53;98799.50;4981493;28;19914;-91
2022/07/27 09:49:02;;;;;;;;;;;;;;;33.94;26.50;98794.63;4981004;28;19972;-92
2022/07/27 09:51:28;;;;;;;;;;;;;;;34.07;26.30;98800.25;4964749;28;19925;-93
2022/07/27 09:53:54;;;;;;;;;;;;;;;34.17;26.40;98799.19;4964510;28;19925;-90
2022/07/27 09:56:26;;;;;;;;;;;;;;;34.29;26.56;98788.50;4966771;28;19992;-92
2022/07/27 09:58:54;;;;;;;;;;;;;;;34.36;25.93;98786.25;4980706;28;19914;-93
2022/07/27 10:01:23;;;;;;;;;;;;;;;34.53;26.91;98783.38;4989583;28;19987;-93
2022/07/27 10:03:53;;;;;;;;;;;;;;;34.51;25.11;98780.25;4999927;28;19989;-93
2022/07/27 10:06:21;;;;;;;;;;;;;;;34.59;24.68;98773.22;4983728;28;19917;-93
2022/07/27 10:08:47;;;;;;;;;;;;;;;34.39;24.75;98777.00;4984409;28;19913;-91
2022/07/27 10:11:12;;;;;;;;;;;;;;;34.40;24.51;98770.16;4984283;28;20307;-93
2022/07/27 10:13:45;;;;;;;;;;;;;;;34.44;24.92;98775.66;4984025;28;20004;-92
2022/07/27 10:16:12;;;;;;;;;;;;;;;34.63;25.63;98768.28;4967486;28;19920;-91
2022/07/27 10:18:58;;;;;;;;;;;;;;;34.73;24.30;98769.22;4967390;28;19918;-94
2022/07/27 10:21:45;;;;;;;;;;;;;;;34.77;25.11;98767.09;4989952;28;19945;-96
2022/07/27 10:24:22;;;;;;;;;;;;;;;34.83;24.46;98764.53;4989512;28;19929;-93
2022/07/27 10:26:47;;;;;;;;;;;;;;;34.75;23.93;98761.94;4973859;28;19918;-93
2022/07/27 10:29:12;;;;;;;;;;;;;;;34.75;24.65;98761.16;4966061;28;20360;-94
2022/07/27 10:31:38;;;;;;;;;;;;;;;34.80;25.53;98763.38;4981739;28;19965;-94
2022/07/27 10:34:07;;;;;;;;;;;;;;;34.91;23.77;98765.88;4985941;28;19987;-95
2022/07/27 10:36:33;;;;;;;;;;;;;;;34.89;23.49;98765.53;4996654;28;19972;-94
2022/07/27 10:38:59;;;;;;;;;;;;;;;34.83;23.96;98767.31;5003900;28;19913;-91
2022/07/27 10:41:28;;;;;;;;;;;;;;;34.87;24.13;98765.19;4983969;28;19972;-95
2022/07/27 10:44:12;;;;;;;;;;;;;;;34.82;23.97;98766.53;4986307;28;19914;-94
2022/07/27 10:46:41;;;;;;;;;;;;;;;34.85;22.87;98768.44;4998094;28;19941;-92
2022/07/27 10:49:21;;;;;;;;;;;;;;;34.87;22.98;98751.22;4997227;28;19921;-94
2022/07/27 10:51:52;;;;;;;;;;;;;;;34.85;22.28;98762.06;5007642;28;19924;-95
2022/07/27 10:54:25;;;;;;;;;;;;;;;34.91;23.17;98758.25;5014475;28;19913;-91
2022/07/27 10:56:52;;;;;;;;;;;;;;;34.93;22.35;98757.81;5013080;28;19964;-95
2022/07/27 10:59:36;;;;;;;;;;;;;;;34.97;22.31;98756.44;5014105;28;19913;-91
2022/07/27 11:02:04;;;;;;;;;;;;;;;35.10;22.76;98759.22;4997992;28;19980;-90
2022/07/27 11:04:30;;;;;;;;;;;;;;;35.18;23.20;98757.78;4978935;28;19914;-93
2022/07/27 11:06:56;;;;;;;;;;;;;;;35.28;22.92;98753.06;4966346;28;20079;-95
2022/07/27 11:09:25;;;;;;;;;;;;;;;35.36;22.13;98745.19;4981776;28;20024;-93
2022/07/27 11:11:52;;;;;;;;;;;;;;;35.44;21.96;98756.91;4986801;28;19914;-96
2022/07/27 11:14:18;;;;;;;;;;;;;;;35.51;21.70;98754.66;5012438;28;19937;-93
2022/07/27 11:16:43;;;;;;;;;;;;;;;35.58;21.36;98750.81;5012906;28;19918;-93
2022/07/27 11:19:08;;;;;;;;;;;;;;;35.60;21.18;98751.91;5012696;28;19914;-95
2022/07/27 11:21:35;;;;;;;;;;;;;;;35.65;21.56;98756.19;5000570;28;19921;-94
2022/07/27 11:24:22;;;;;;;;;;;;;;;35.66;21.82;98745.78;4963175;28;19913;-96
2022/07/27 11:26:48;;;;;;;;;;;;;;;35.68;20.58;98748.91;4993126;28;19914;-93
2022/07/27 11:29:14;;;;;;;;;;;;;;;35.69;21.00;98742.84;4960658;28;19919;-91
2022/07/27 11:31:40;;;;;;;;;;;;;;;35.67;20.36;98744.53;4993359;28;19922;-93
2022/07/27 11:34:06;;;;;;;;;;;;;;;35.76;20.76;98744.63;4995926;28;20411;-94
2022/07/27 11:36:40;;;;;;;;;;;;;;;35.85;20.41;98738.28;4975761;28;19994;-91
2022/07/27 11:39:36;;;;;;;;;;;;;;;;;;;;;
2022/07/27 11:42:11;;;;;;;;;;;;;;;35.81;20.34;98732.81;4946046;29;20018;-96
2022/07/27 11:44:37;;;;;;;;;;;;;;;35.67;19.87;98731.31;4978206;28;19924;-94
2022/07/27 11:47:02;;;;;;;;;;;;;;;35.58;20.27;98734.78;4961935;28;19926;-94
2022/07/27 11:49:28;;;;;;;;;;;;;;;35.64;19.05;98725.81;4993725;28;19925;-95
2022/07/27 11:52:04;;;;;;;;;;;;;;;35.59;19.44;98727.16;4996970;28;19914;-96
2022/07/27 11:54:30;;;;;;;;;;;;;;;35.62;19.02;98718.63;4991871;28;20411;-91
2022/07/27 11:56:57;;;;;;;;;;;;;;;35.42;18.81;98729.38;5008443;28;19918;-94
2022/07/27 11:59:23;;;;;;;;;;;;;;;35.51;18.84;98720.25;4961752;28;20057;-93
2022/07/27 12:01:49;;;;;;;;;;;;;;;35.63;19.24;98711.00;4985205;28;19988;-92
2022/07/27 12:04:17;;;;;;;;;;;;;;;35.75;18.83;98717.81;4974289;28;19968;-91
2022/07/27 12:06:44;;;;;;;;;;;;;;;35.77;18.61;98715.34;5012156;28;19933;-92
2022/07/27 12:09:13;;;;;;;;;;;;;;;35.80;19.04;98706.06;4978899;28;19968;-92
2022/07/27 12:11:48;;;;;;;;;;;;;;;35.90;19.39;98704.84;4993021;28;19920;-92
2022/07/27 12:14:17;;;;;;;;;;;;;;;35.87;19.13;98705.78;4978577;28;20360;-90
2022/07/27 12:16:42;;;;;;;;;;;;;;;35.88;18.87;98698.91;4977910;28;19965;-89
2022/07/27 12:19:08;;;;;;;;;;;;;;;35.95;19.40;98703.50;4977167;28;19960;-88
2022/07/27 12:21:33;;;;;;;;;;;;;;;36.05;19.12;98705.09;4976193;28;19972;-89
2022/07/27 12:23:59;;;;;;;;;;;;;;;36.13;18.81;98694.38;4976614;28;19913;-89
2022/07/27 12:26:24;;;;;;;;;;;;;;;36.24;18.41;98688.41;4965339;28;20477;-91
2022/07/27 12:29:08;;;;;;;;;;;;;;;36.20;18.79;98697.72;4970497;28;19969;-92
2022/07/27 12:31:34;;;;;;;;;;;;;;;36.36;19.43;98695.91;4962801;28;20042;-91
2022/07/27 12:34:01;;;;;;;;;;;;;;;36.44;19.11;98688.00;4992721;28;19917;-91
2022/07/27 12:36:27;;;;;;;;;;;;;;;36.54;18.77;98687.56;4961474;28;19918;-91
2022/07/27 12:38:56;;;;;;;;;;;;;;;36.61;18.57;98692.91;4995801;28;20184;-95
2022/07/27 12:41:26;;;;;;;;;;;;;;;36.63;18.21;98684.06;4981061;28;19914;-91
2022/07/27 12:44:14;;;;;;;;;;;;;;;36.73;18.36;98690.47;4993856;28;19914;-94
2022/07/27 12:46:52;;;;;;;;;;;;;;;36.78;18.06;98685.03;4977444;28;19993;-93
2022/07/27 12:49:17;;;;;;;;;;;;;;;36.94;17.77;98685.97;4976930;28;20355;-91
2022/07/27 12:51:43;;;;;;;;;;;;;;;36.98;17.61;98681.00;4980788;28;19985;-91
2022/07/27 12:54:08;;;;;;;;;;;;;;;37.08;17.21;98681.78;4977463;28;20372;-91
2022/07/27 12:56:36;;;;;;;;;;;;;;;37.21;17.45;98672.00;4992804;28;19917;-92
2022/07/27 12:59:02;;;;;;;;;;;;;;;37.17;17.26;98667.81;4975704;28;19977;-92
2022/07/27 13:01:28;;;;;;;;;;;;;;;37.35;17.66;98670.56;4998751;28;20355;-93
2022/07/27 13:03:53;;;;;;;;;;;;;;;37.30;17.03;98674.03;4987137;28;20024;-93
2022/07/27 13:06:18;;;;;;;;;;;;;;;37.46;17.11;98666.50;4961574;28;20451;-91
2022/07/27 13:08:44;;;;;;;;;;;;;;;37.53;17.14;98669.03;4975903;28;20056;-93
2022/07/27 13:11:11;;;;;;;;;;;;;;;37.68;17.16;98658.72;4964252;28;19914;-92
2022/07/27 13:13:37;;;;;;;;;;;;;;;37.79;17.20;98659.00;4960283;28;20012;-92
2022/07/27 13:16:02;;;;;;;;;;;;;;;37.81;17.35;98658.53;4962861;28;19957;-92